Time;durP1;ratioP1;P1;durP2;ratioP2;P2;SDS_P1;SDS_P2;PMS_P1;PMS_P2;Temp;Humidity;BMP_temperature;BMP_pressure;BME280_temperature;BME280_humidity;BME280_pressure;Samples;Min_cycle;Max_cycle;Signal;HPM_P1;HPM_P2
2023/09/03 00:00:41;;;;;;;6.05;2.50;;;20.90;98.80;;;;;;5052338;28;20427;-65
2023/09/03 00:03:07;;;;;;;3.33;2.53;;;20.90;98.90;;;;;;5052508;28;20537;-65
2023/09/03 00:05:33;;;;;;;5.00;2.75;;;20.90;99.10;;;;;;5051737;28;20511;-65
2023/09/03 00:07:59;;;;;;;4.20;2.40;;;21.00;99.00;;;;;;5052168;28;20481;-64
2023/09/03 00:10:24;;;;;;;4.53;2.30;;;21.00;98.60;;;;;;5047051;28;20025;-64
2023/09/03 00:12:50;;;;;;;4.05;2.45;;;21.00;98.70;;;;;;5014844;28;20037;-64
2023/09/03 00:15:21;;;;;;;4.70;2.80;;;21.10;98.50;;;;;;5032107;28;20049;-65
2023/09/03 00:17:47;;;;;;;7.40;2.60;;;21.10;98.50;;;;;;5032328;28;20030;-65
2023/09/03 00:20:13;;;;;;;3.58;2.70;;;21.10;98.30;;;;;;5037476;28;20040;-64
2023/09/03 00:22:39;;;;;;;3.17;2.70;;;21.10;98.30;;;;;;5036053;28;20060;-64
2023/09/03 00:25:06;;;;;;;4.35;2.85;;;21.20;98.30;;;;;;5036430;28;20454;-64
2023/09/03 00:27:32;;;;;;;3.65;2.80;;;21.20;98.30;;;;;;5035707;28;20035;-64
2023/09/03 00:29:57;;;;;;;4.45;3.20;;;21.20;98.30;;;;;;5036363;28;20029;-63
2023/09/03 00:32:23;;;;;;;7.00;3.13;;;21.30;98.50;;;;;;5036111;28;20063;-65
2023/09/03 00:34:49;;;;;;;6.50;3.67;;;21.30;98.50;;;;;;5035991;28;20156;-65
2023/09/03 00:37:14;;;;;;;7.70;3.38;;;21.20;98.60;;;;;;5036061;28;20029;-64
2023/09/03 00:39:40;;;;;;;6.13;3.33;;;21.30;98.70;;;;;;5035755;28;20083;-64
2023/09/03 00:42:06;;;;;;;5.95;3.38;;;21.30;98.70;;;;;;5036109;28;20029;-64
2023/09/03 00:44:31;;;;;;;4.03;3.33;;;21.30;98.70;;;;;;5035900;28;20046;-65
2023/09/03 00:46:57;;;;;;;7.07;3.38;;;21.30;99.00;;;;;;5036350;28;20079;-65
2023/09/03 00:49:24;;;;;;;3.95;2.80;;;21.30;99.20;;;;;;5017799;28;20088;-65
2023/09/03 00:51:53;;;;;;;6.53;3.10;;;21.40;99.50;;;;;;5035924;28;20033;-63
2023/09/03 00:54:21;;;;;;;5.75;2.58;;;21.40;99.70;;;;;;5035528;28;20087;-66
2023/09/03 00:56:49;;;;;;;5.05;2.65;;;21.30;99.90;;;;;;5035412;28;20045;-64
2023/09/03 00:59:15;;;;;;;3.92;2.90;;;21.40;99.90;;;;;;5035552;28;20038;-65
2023/09/03 01:01:42;;;;;;;4.65;2.63;;;21.40;99.90;;;;;;5034977;28;20459;-65
2023/09/03 01:04:07;;;;;;;5.18;2.83;;;21.40;99.90;;;;;;5035571;28;20044;-64
2023/09/03 01:06:33;;;;;;;2.90;2.50;;;21.40;99.90;;;;;;5035243;28;20025;-65
2023/09/03 01:08:59;;;;;;;3.60;2.63;;;21.40;99.90;;;;;;5035432;28;20021;-66
2023/09/03 01:11:34;;;;;;;3.78;2.40;;;21.40;99.90;;;;;;5035615;28;20025;-65
2023/09/03 01:14:08;;;;;;;3.78;2.83;;;21.40;99.90;;;;;;5035457;28;20467;-65
2023/09/03 01:16:46;;;;;;;3.72;2.40;;;21.40;99.90;;;;;;5035411;28;20092;-65
2023/09/03 01:19:37;;;;;;;4.88;2.42;;;21.40;99.90;;;;;;5035661;28;20489;-65
2023/09/03 01:22:27;;;;;;;3.75;2.50;;;21.40;99.90;;;;;;5035416;28;20103;-65
2023/09/03 01:25:05;;;;;;;5.10;3.00;;;21.40;99.90;;;;;;5035480;28;20055;-65
2023/09/03 01:27:41;;;;;;;3.42;2.38;;;21.40;99.90;;;;;;5034979;28;20021;-65
2023/09/03 01:30:08;;;;;;;3.63;2.50;;;21.40;99.90;;;;;;5034869;28;20108;-65
2023/09/03 01:32:36;;;;;;;2.92;2.25;;;21.40;99.90;;;;;;5034289;28;20029;-65
2023/09/03 01:35:02;;;;;;;6.57;2.50;;;21.30;99.90;;;;;;5034865;28;20026;-64
2023/09/03 01:37:28;;;;;;;3.97;2.08;;;21.30;99.90;;;;;;5034736;28;20026;-65
2023/09/03 01:39:53;;;;;;;4.25;2.28;;;21.30;99.90;;;;;;5034830;28;20389;-65
2023/09/03 01:42:19;;;;;;;6.10;2.55;;;21.20;99.80;;;;;;5034932;28;20029;-65
2023/09/03 01:44:45;;;;;;;3.65;2.10;;;21.20;99.80;;;;;;5034636;28;20025;-65
2023/09/03 01:47:33;;;;;;;4.72;2.60;;;21.20;99.70;;;;;;5034702;28;20057;-65
2023/09/03 01:50:17;;;;;;;3.75;2.05;;;21.20;99.60;;;;;;5034648;28;20389;-65
2023/09/03 01:53:12;;;;;;;3.60;2.40;;;21.20;99.60;;;;;;5034493;28;20033;-65
2023/09/03 01:55:41;;;;;;;3.08;2.35;;;21.10;99.90;;;;;;5043852;28;20045;-65
2023/09/03 01:58:09;;;;;;;5.72;2.58;;;21.00;99.90;;;;;;5054379;28;20025;-64
2023/09/03 02:00:36;;;;;;;7.32;2.47;;;21.00;99.90;;;;;;5054021;28;20036;-65
2023/09/03 02:03:03;;;;;;;3.95;2.83;;;21.00;99.90;;;;;;5054234;28;20350;-65
2023/09/03 02:05:29;;;;;;;3.80;2.85;;;21.00;99.90;;;;;;5054139;28;20428;-66
2023/09/03 02:07:54;;;;;;;3.30;2.20;;;21.00;99.90;;;;;;5054520;28;20059;-65
2023/09/03 02:10:20;;;;;;;7.50;2.50;;;20.90;99.90;;;;;;5054407;28;20021;-65
2023/09/03 02:12:46;;;;;;;2.65;2.35;;;20.90;99.90;;;;;;5053951;28;20029;-65
2023/09/03 02:15:11;;;;;;;4.45;2.65;;;20.80;99.90;;;;;;5054065;28;20120;-65
2023/09/03 02:17:37;;;;;;;4.30;2.80;;;20.80;99.90;;;;;;5038299;28;20029;-65
2023/09/03 02:20:03;;;;;;;3.10;2.17;;;20.70;99.90;;;;;;5037077;28;20363;-65
2023/09/03 02:22:29;;;;;;;7.63;2.55;;;20.70;99.90;;;;;;5033828;28;20029;-65
2023/09/03 02:24:54;;;;;;;6.07;2.60;;;20.70;99.90;;;;;;5034346;28;20056;-65
2023/09/03 02:27:20;;;;;;;4.85;2.55;;;20.60;99.90;;;;;;5033942;28;20529;-65
2023/09/03 02:29:46;;;;;;;4.40;2.28;;;20.60;99.90;;;;;;5033608;28;20030;-65
2023/09/03 02:32:11;;;;;;;3.83;2.63;;;20.60;99.90;;;;;;5034127;28;20029;-65
2023/09/03 02:34:37;;;;;;;4.82;2.72;;;20.60;99.90;;;;;;5033607;28;20371;-66
2023/09/03 02:37:03;;;;;;;3.90;2.47;;;20.60;99.90;;;;;;5034034;28;20033;-65
2023/09/03 02:39:29;;;;;;;4.97;2.53;;;20.60;99.90;;;;;;5033265;28;20033;-65
2023/09/03 02:41:54;;;;;;;5.05;2.50;;;20.60;99.90;;;;;;5033849;28;20029;-65
2023/09/03 02:44:20;;;;;;;3.25;2.55;;;20.60;99.90;;;;;;5033834;28;20033;-65
2023/09/03 02:46:45;;;;;;;2.90;2.30;;;20.60;99.90;;;;;;5033383;28;20429;-65
2023/09/03 02:49:11;;;;;;;7.32;2.50;;;20.50;99.90;;;;;;5016283;28;20098;-65
2023/09/03 02:51:37;;;;;;;4.47;2.10;;;20.50;99.90;;;;;;5033332;28;20489;-66
2023/09/03 02:54:03;;;;;;;3.10;2.30;;;20.50;99.90;;;;;;5033973;28;20426;-64
2023/09/03 02:56:30;;;;;;;3.88;2.70;;;20.50;99.90;;;;;;5044718;28;20084;-65
2023/09/03 02:58:55;;;;;;;4.38;2.65;;;20.50;99.90;;;;;;5053830;28;20087;-64
2023/09/03 03:01:21;;;;;;;3.50;2.55;;;20.50;99.90;;;;;;5053305;28;20040;-65
2023/09/03 03:03:47;;;;;;;4.93;2.90;;;20.40;99.90;;;;;;5053026;28;20037;-65
2023/09/03 03:06:14;;;;;;;3.28;2.80;;;20.40;99.90;;;;;;5053406;28;20021;-64
2023/09/03 03:08:40;;;;;;;5.38;3.28;;;20.40;99.90;;;;;;5053268;28;20032;-65
2023/09/03 03:11:09;;;;;;;5.15;2.65;;;20.40;99.90;;;;;;5053344;28;20036;-65
2023/09/03 03:13:35;;;;;;;3.58;2.45;;;20.40;99.90;;;;;;5063871;28;20039;-65
2023/09/03 03:16:06;;;;;;;2.65;2.15;;;20.40;99.90;;;;;;5073173;28;20030;-65
2023/09/03 03:18:36;;;;;;;3.25;2.25;;;20.40;99.90;;;;;;5072453;28;20025;-65
2023/09/03 03:21:07;;;;;;;6.85;2.20;;;20.40;99.90;;;;;;5073246;28;20037;-65
2023/09/03 03:23:34;;;;;;;3.70;2.20;;;20.40;99.90;;;;;;5072630;28;20157;-65
2023/09/03 03:26:00;;;;;;;3.72;1.92;;;20.40;99.90;;;;;;5059187;28;20037;-65
2023/09/03 03:28:25;;;;;;;4.78;2.45;;;20.40;99.90;;;;;;5053483;28;20047;-65
2023/09/03 03:30:51;;;;;;;2.95;2.33;;;20.50;99.90;;;;;;5052625;28;20103;-65
2023/09/03 03:33:16;;;;;;;5.18;2.50;;;20.40;99.90;;;;;;5052867;28;20425;-65
2023/09/03 03:35:42;;;;;;;2.95;2.58;;;20.40;99.90;;;;;;5051281;28;20029;-65
2023/09/03 03:38:08;;;;;;;4.45;2.60;;;20.20;99.90;;;;;;5053006;28;20113;-65
2023/09/03 03:40:33;;;;;;;6.80;2.58;;;20.10;99.90;;;;;;5052555;28;20037;-66
2023/09/03 03:42:59;;;;;;;2.88;2.50;;;20.10;99.90;;;;;;5052760;28;20040;-65
2023/09/03 03:45:24;;;;;;;5.70;2.60;;;20.00;99.90;;;;;;5052502;28;20035;-65
2023/09/03 03:47:50;;;;;;;4.25;2.50;;;19.90;99.90;;;;;;5051960;28;20461;-65
2023/09/03 03:50:16;;;;;;;5.38;2.80;;;19.90;99.90;;;;;;5052376;28;20489;-65
2023/09/03 03:52:41;;;;;;;3.05;2.45;;;19.80;99.90;;;;;;5051945;28;20075;-65
2023/09/03 03:55:07;;;;;;;5.95;2.47;;;19.80;99.90;;;;;;5050572;28;20045;-65
2023/09/03 03:57:32;;;;;;;5.10;2.45;;;19.80;99.90;;;;;;5052224;28;20025;-67
2023/09/03 03:59:58;;;;;;;4.30;2.53;;;19.80;99.90;;;;;;5052656;28;20029;-65
2023/09/03 04:02:24;;;;;;;3.63;2.47;;;19.90;99.90;;;;;;5052478;28;20036;-65
2023/09/03 04:04:53;;;;;;;2.85;2.25;;;19.80;99.90;;;;;;5051796;28;20032;-65
2023/09/03 04:07:19;;;;;;;6.57;2.70;;;19.80;99.90;;;;;;5052401;28;20115;-65
2023/09/03 04:09:45;;;;;;;6.45;3.10;;;19.80;99.90;;;;;;5052029;28;20025;-65
2023/09/03 04:12:11;;;;;;;4.30;2.83;;;19.70;99.90;;;;;;5051079;28;20116;-65
2023/09/03 04:14:37;;;;;;;3.97;2.58;;;19.70;99.90;;;;;;5055015;28;20023;-65
2023/09/03 04:17:04;;;;;;;2.85;2.55;;;19.70;99.90;;;;;;5053209;28;20029;-65
2023/09/03 04:19:29;;;;;;;5.47;3.03;;;19.70;99.90;;;;;;5052670;28;20070;-65
2023/09/03 04:21:55;;;;;;;3.33;2.67;;;19.60;99.90;;;;;;5052023;28;20124;-65
2023/09/03 04:24:20;;;;;;;4.60;2.75;;;19.60;99.90;;;;;;5064929;28;20469;-65
2023/09/03 04:26:46;;;;;;;4.07;2.60;;;19.60;99.90;;;;;;5071953;28;20028;-65
2023/09/03 04:29:12;;;;;;;4.15;2.67;;;19.60;99.90;;;;;;5072371;28;20369;-65
2023/09/03 04:31:38;;;;;;;4.78;2.70;;;19.60;99.90;;;;;;5072145;28;20487;-65
2023/09/03 04:34:05;;;;;;;4.28;2.55;;;19.60;99.90;;;;;;5072543;28;20025;-65
2023/09/03 04:36:31;;;;;;;5.20;2.92;;;19.60;99.90;;;;;;5072066;28;20111;-65
2023/09/03 04:38:56;;;;;;;4.70;3.15;;;19.60;99.90;;;;;;5071768;28;20063;-65
2023/09/03 04:41:22;;;;;;;4.22;2.80;;;19.60;99.90;;;;;;5072082;28;20032;-65
2023/09/03 04:43:48;;;;;;;6.35;3.00;;;19.60;99.90;;;;;;5071464;28;20028;-65
2023/09/03 04:46:13;;;;;;;3.75;2.70;;;19.60;99.90;;;;;;5071776;28;20052;-65
2023/09/03 04:48:39;;;;;;;4.07;2.60;;;19.60;99.90;;;;;;5071696;28;20036;-65
2023/09/03 04:51:06;;;;;;;4.03;2.90;;;19.60;99.90;;;;;;5071956;28;20119;-65
2023/09/03 04:53:32;;;;;;;4.70;2.78;;;19.60;99.90;;;;;;5072001;28;20029;-65
2023/09/03 04:55:58;;;;;;;7.28;2.95;;;19.60;99.90;;;;;;5059657;28;20048;-65
2023/09/03 04:58:24;;;;;;;4.20;2.63;;;19.60;99.90;;;;;;5051906;28;20032;-65
2023/09/03 05:00:49;;;;;;;5.75;3.20;;;19.60;99.90;;;;;;5051419;28;20056;-65
2023/09/03 05:03:15;;;;;;;3.42;2.90;;;19.60;99.90;;;;;;5052164;28;20036;-65
2023/09/03 05:05:44;;;;;;;4.07;2.65;;;19.60;99.90;;;;;;5048022;28;20070;-64
2023/09/03 05:08:10;;;;;;;3.63;2.60;;;19.60;99.90;;;;;;5055571;28;20104;-64
2023/09/03 05:10:36;;;;;;;10.90;3.05;;;19.60;99.90;;;;;;5055236;28;20151;-64
2023/09/03 05:13:04;;;;;;;5.75;3.03;;;19.60;99.90;;;;;;5055136;28;20025;-64
2023/09/03 05:15:30;;;;;;;3.72;2.50;;;19.60;99.90;;;;;;5055420;28;20112;-64
2023/09/03 05:17:55;;;;;;;6.82;3.00;;;19.60;99.90;;;;;;5054984;28;20495;-64
2023/09/03 05:20:21;;;;;;;3.55;2.50;;;19.60;99.90;;;;;;5055222;28;20060;-64
2023/09/03 05:22:47;;;;;;;2.75;2.28;;;19.70;99.90;;;;;;5054977;28;20461;-64
2023/09/03 05:25:12;;;;;;;7.72;3.10;;;19.70;99.90;;;;;;5055374;28;20033;-64
2023/09/03 05:27:38;;;;;;;4.25;2.40;;;19.70;99.90;;;;;;5055097;28;20465;-65
2023/09/03 05:30:05;;;;;;;4.95;2.50;;;19.80;99.90;;;;;;5054783;28;20025;-64
2023/09/03 05:32:31;;;;;;;4.00;3.05;;;19.80;99.90;;;;;;5054900;28;20033;-65
2023/09/03 05:34:57;;;;;;;3.15;2.40;;;19.80;99.90;;;;;;5055372;28;20071;-65
2023/09/03 05:37:22;;;;;;;2.97;2.42;;;19.80;99.90;;;;;;5055623;28;20370;-64
2023/09/03 05:39:50;;;;;;;4.60;2.63;;;19.80;99.90;;;;;;5054724;28;20203;-65
2023/09/03 05:42:16;;;;;;;3.45;2.75;;;19.80;99.90;;;;;;5037124;28;20413;-64
2023/09/03 05:44:41;;;;;;;3.50;2.55;;;19.80;99.90;;;;;;5054604;28;20025;-66
2023/09/03 05:47:07;;;;;;;3.78;2.65;;;19.80;99.90;;;;;;5054968;28;20564;-66
2023/09/03 05:49:33;;;;;;;4.32;3.05;;;19.90;99.90;;;;;;5055108;28;20040;-64
2023/09/03 05:51:58;;;;;;;4.47;2.20;;;19.90;99.90;;;;;;5054553;28;20032;-65
2023/09/03 05:54:24;;;;;;;4.00;2.83;;;19.80;99.90;;;;;;5054874;28;20028;-65
2023/09/03 05:56:50;;;;;;;4.32;2.63;;;19.80;99.90;;;;;;5054580;28;20056;-65
2023/09/03 05:59:15;;;;;;;5.07;2.45;;;19.80;99.90;;;;;;5054787;28;20060;-65
2023/09/03 06:01:41;;;;;;;6.85;2.75;;;19.80;99.90;;;;;;5054685;28;20036;-65
2023/09/03 06:04:09;;;;;;;5.25;2.60;;;19.80;99.90;;;;;;5054930;28;20025;-65
2023/09/03 06:06:40;;;;;;;3.67;2.20;;;19.80;99.90;;;;;;5054596;28;20033;-64
2023/09/03 06:09:06;;;;;;;6.63;2.95;;;19.90;99.90;;;;;;5053999;28;20100;-65
2023/09/03 06:11:35;;;;;;;4.15;2.05;;;19.90;99.90;;;;;;5054479;28;20044;-65
2023/09/03 06:14:01;;;;;;;5.22;2.30;;;20.00;99.90;;;;;;5053970;28;20439;-64
2023/09/03 06:16:27;;;;;;;3.35;2.40;;;20.00;99.90;;;;;;5054245;28;20025;-64
2023/09/03 06:18:53;;;;;;;3.05;2.15;;;20.00;99.90;;;;;;5035998;28;20032;-64
2023/09/03 06:21:19;;;;;;;5.05;2.25;;;20.00;99.90;;;;;;5039322;28;20079;-63
2023/09/03 06:23:44;;;;;;;3.72;2.20;;;20.00;99.90;;;;;;5034128;28;20045;-66
2023/09/03 06:26:10;;;;;;;3.03;2.40;;;20.10;99.90;;;;;;5034599;28;20029;-64
2023/09/03 06:28:36;;;;;;;4.65;2.53;;;20.10;99.90;;;;;;5053913;28;20028;-64
2023/09/03 06:31:02;;;;;;;2.90;2.40;;;20.10;99.90;;;;;;5053775;28;20382;-64
2023/09/03 06:33:27;;;;;;;3.95;2.08;;;20.20;99.90;;;;;;5054069;28;20028;-64
2023/09/03 06:35:53;;;;;;;2.88;1.77;;;20.20;99.90;;;;;;5053517;28;20042;-64
2023/09/03 06:38:19;;;;;;;2.33;2.08;;;20.20;99.90;;;;;;5043060;28;20021;-63
2023/09/03 06:40:44;;;;;;;3.40;2.08;;;20.20;99.90;;;;;;5044384;28;20351;-63
2023/09/03 06:43:10;;;;;;;4.38;2.20;;;20.30;99.90;;;;;;5044368;28;20469;-65
2023/09/03 06:45:36;;;;;;;3.00;2.22;;;20.40;99.90;;;;;;5042807;28;20381;-64
2023/09/03 06:48:01;;;;;;;5.60;1.80;;;20.40;99.90;;;;;;5042040;28;20018;-64
2023/09/03 06:50:27;;;;;;;2.92;2.08;;;20.50;99.90;;;;;;5045245;28;20028;-64
2023/09/03 06:52:53;;;;;;;4.68;1.92;;;20.50;99.90;;;;;;5042291;28;20029;-64
2023/09/03 06:55:18;;;;;;;3.10;1.80;;;20.60;99.90;;;;;;5043950;28;20102;-64
2023/09/03 06:57:44;;;;;;;2.95;1.80;;;20.60;99.90;;;;;;5042559;28;20116;-64
2023/09/03 07:00:10;;;;;;;2.30;2.00;;;20.70;99.90;;;;;;5042867;28;20048;-64
2023/09/03 07:02:36;;;;;;;2.97;1.92;;;20.70;99.90;;;;;;5041479;28;20091;-64
2023/09/03 07:05:02;;;;;;;2.47;1.95;;;20.80;99.90;;;;;;5041959;28;20022;-65
2023/09/03 07:07:28;;;;;;;2.67;1.88;;;20.90;99.90;;;;;;5043568;28;20021;-65
2023/09/03 07:09:54;;;;;;;2.92;2.13;;;20.90;99.90;;;;;;5040285;28;20028;-64
2023/09/03 07:12:20;;;;;;;2.53;1.73;;;21.00;99.90;;;;;;5046839;28;20025;-64
2023/09/03 07:14:46;;;;;;;2.20;2.00;;;21.00;99.90;;;;;;5042462;28;20377;-65
2023/09/03 07:17:12;;;;;;;3.90;2.00;;;21.10;99.90;;;;;;5042129;28;20535;-64
2023/09/03 07:19:37;;;;;;;3.55;1.90;;;21.20;99.90;;;;;;5043725;28;20017;-64
2023/09/03 07:22:03;;;;;;;2.00;1.80;;;21.20;99.90;;;;;;5043309;28;20025;-64
2023/09/03 07:24:29;;;;;;;3.30;2.13;;;21.20;99.90;;;;;;5041054;28;20040;-64
2023/09/03 07:26:54;;;;;;;2.65;1.88;;;21.20;99.90;;;;;;5033185;28;20473;-65
2023/09/03 07:29:20;;;;;;;2.85;1.85;;;21.10;99.60;;;;;;5037445;28;20025;-64
2023/09/03 07:31:46;;;;;;;3.25;1.92;;;21.20;99.50;;;;;;5040821;28;20107;-64
2023/09/03 07:34:12;;;;;;;1.85;1.50;;;21.10;98.70;;;;;;5044630;28;20478;-65
2023/09/03 07:36:38;;;;;;;1.70;1.55;;;21.10;98.80;;;;;;5041947;28;20018;-65
2023/09/03 07:39:05;;;;;;;2.17;1.92;;;21.20;97.60;;;;;;5043019;28;20025;-64
2023/09/03 07:41:31;;;;;;;1.88;1.60;;;21.10;97.60;;;;;;5041748;28;20100;-64
2023/09/03 07:43:57;;;;;;;2.17;1.48;;;21.20;97.70;;;;;;5042032;28;20033;-64
2023/09/03 07:46:23;;;;;;;2.33;1.70;;;21.10;97.80;;;;;;5034291;28;20113;-65
2023/09/03 07:48:49;;;;;;;2.20;1.63;;;21.10;97.90;;;;;;5039022;28;20021;-64
2023/09/03 07:51:17;;;;;;;3.30;1.70;;;21.10;97.10;;;;;;5047475;28;20492;-66
2023/09/03 07:53:43;;;;;;;1.58;1.45;;;21.10;96.50;;;;;;5051423;28;20520;-64
2023/09/03 07:56:08;;;;;;;2.00;1.77;;;21.20;96.70;;;;;;5032249;28;20045;-64
2023/09/03 07:58:34;;;;;;;2.13;1.80;;;21.10;96.40;;;;;;5032260;28;20044;-63
2023/09/03 08:01:00;;;;;;;2.22;2.00;;;21.10;96.50;;;;;;5031969;28;20083;-63
2023/09/03 08:03:35;;;;;;;2.00;1.80;;;21.10;97.30;;;;;;5042873;28;20033;-64
2023/09/03 08:06:03;;;;;;;2.65;2.28;;;21.10;97.60;;;;;;5052034;28;20060;-64
2023/09/03 08:08:29;;;;;;;2.38;1.85;;;21.10;97.60;;;;;;5052472;28;20032;-65
2023/09/03 08:10:58;;;;;;;3.28;1.80;;;21.20;97.90;;;;;;5051919;28;20389;-65
2023/09/03 08:13:24;;;;;;;2.38;1.98;;;21.20;98.50;;;;;;5048911;28;20029;-65
2023/09/03 08:15:50;;;;;;;4.00;2.20;;;21.20;97.90;;;;;;5052661;28;20508;-64
2023/09/03 08:18:16;;;;;;;3.55;2.00;;;21.20;98.00;;;;;;5051441;28;20033;-64
2023/09/03 08:20:41;;;;;;;3.08;2.30;;;21.10;97.50;;;;;;5039924;28;20052;-64
2023/09/03 08:23:11;;;;;;;2.72;1.80;;;21.20;97.30;;;;;;5032053;28;20033;-64
2023/09/03 08:25:36;;;;;;;3.05;2.10;;;21.10;97.40;;;;;;5032107;28;20259;-64
2023/09/03 08:28:02;;;;;;;2.00;1.80;;;21.10;97.50;;;;;;5031923;28;20704;-64
2023/09/03 08:30:28;;;;;;;2.00;1.80;;;21.10;97.50;;;;;;5032147;28;20029;-64
2023/09/03 08:32:53;;;;;;;2.90;1.85;;;21.10;96.20;;;;;;5031872;28;20022;-64
2023/09/03 08:35:19;;;;;;;2.55;1.63;;;21.10;96.00;;;;;;5032290;28;20022;-64
2023/09/03 08:37:45;;;;;;;3.13;2.20;;;21.10;95.40;;;;;;5043187;28;20052;-65
2023/09/03 08:40:11;;;;;;;3.33;1.70;;;21.10;95.70;;;;;;5052390;28;20029;-64
2023/09/03 08:42:40;;;;;;;1.80;1.55;;;21.20;95.60;;;;;;5055997;28;20053;-64
2023/09/03 08:45:10;;;;;;;3.15;1.55;;;21.10;95.50;;;;;;5055440;28;20036;-64
2023/09/03 08:47:39;;;;;;;3.42;1.95;;;21.30;95.50;;;;;;5056407;28;20036;-64
2023/09/03 08:50:07;;;;;;;1.55;1.45;;;21.20;94.80;;;;;;5055623;28;20453;-64
2023/09/03 08:52:33;;;;;;;3.38;2.40;;;21.30;94.90;;;;;;5055645;28;20397;-65
2023/09/03 08:55:00;;;;;;;2.28;1.70;;;21.30;95.20;;;;;;5051437;28;20088;-64
2023/09/03 08:57:30;;;;;;;2.45;1.77;;;21.30;95.50;;;;;;5046285;28;20029;-64
2023/09/03 08:59:56;;;;;;;4.00;1.73;;;21.30;95.30;;;;;;5040957;28;20078;-68
2023/09/03 09:02:25;;;;;;;3.35;2.10;;;21.30;95.40;;;;;;5046162;28;20029;-65
2023/09/03 09:04:50;;;;;;;2.42;2.05;;;21.30;95.60;;;;;;5044319;28;20026;-65
2023/09/03 09:07:18;;;;;;;3.08;2.28;;;21.30;95.80;;;;;;5046098;28;20380;-65
2023/09/03 09:09:46;;;;;;;3.88;1.98;;;21.30;96.10;;;;;;5043810;28;20068;-65
2023/09/03 09:12:24;;;;;;;5.72;2.30;;;21.30;96.40;;;;;;5044702;28;20025;-64
2023/09/03 09:14:55;;;;;;;2.67;1.80;;;21.40;96.70;;;;;;5044237;28;20025;-64
2023/09/03 09:17:21;;;;;;;2.63;2.22;;;21.40;96.10;;;;;;5043904;28;20045;-64
2023/09/03 09:19:46;;;;;;;3.35;2.00;;;21.50;96.00;;;;;;5051081;28;20025;-65
2023/09/03 09:22:12;;;;;;;4.55;2.38;;;21.60;96.00;;;;;;5054767;28;20057;-65
2023/09/03 09:24:45;;;;;;;4.38;2.47;;;21.60;95.90;;;;;;5054964;28;20063;-65
2023/09/03 09:27:14;;;;;;;2.47;2.00;;;21.60;95.80;;;;;;5052724;28;20417;-65
2023/09/03 09:29:40;;;;;;;3.55;2.35;;;21.70;95.80;;;;;;5047754;28;20037;-65
2023/09/03 09:32:32;;;;;;;4.18;2.85;;;21.70;95.50;;;;;;5043167;28;20037;-65
2023/09/03 09:34:57;;;;;;;3.50;2.50;;;21.70;95.20;;;;;;5022193;28;20075;-65
2023/09/03 09:37:23;;;;;;;4.63;2.33;;;21.70;95.00;;;;;;5045202;28;20048;-68
2023/09/03 09:39:49;;;;;;;2.92;2.60;;;21.70;95.00;;;;;;5043812;28;20116;-67
2023/09/03 09:42:18;;;;;;;2.55;2.03;;;21.80;94.80;;;;;;5038904;28;20028;-69
2023/09/03 09:44:56;;;;;;;3.22;2.30;;;21.80;94.70;;;;;;5034805;28;20030;-67
2023/09/03 09:47:22;;;;;;;2.50;2.00;;;21.90;94.30;;;;;;5034349;28;20097;-67
2023/09/03 09:49:48;;;;;;;2.30;2.10;;;21.90;91.80;;;;;;5017276;28;20032;-68
2023/09/03 09:52:17;;;;;;;2.22;1.92;;;21.90;91.70;;;;;;5033713;28;20029;-67
2023/09/03 09:54:43;;;;;;;2.35;2.15;;;21.90;91.90;;;;;;5034466;28;20025;-68
2023/09/03 09:57:10;;;;;;;1.80;1.70;;;21.90;92.10;;;;;;5034102;28;20026;-67
2023/09/03 09:59:36;;;;;;;3.60;1.80;;;22.00;91.80;;;;;;5034464;28;20037;-67
2023/09/03 10:02:14;;;;;;;2.25;2.00;;;22.00;91.80;;;;;;5034321;28;20041;-67
2023/09/03 10:04:41;;;;;;;2.15;1.70;;;22.10;91.40;;;;;;5034370;28;20104;-68
2023/09/03 10:07:08;;;;;;;2.58;1.92;;;22.10;90.50;;;;;;5033945;28;20028;-66
2023/09/03 10:09:35;;;;;;;2.10;1.83;;;22.20;90.70;;;;;;5034219;28;20425;-67
2023/09/03 10:12:02;;;;;;;2.65;1.65;;;22.20;89.70;;;;;;5016091;28;20546;-68
2023/09/03 10:14:28;;;;;;;1.88;1.45;;;22.20;89.60;;;;;;5034324;28;20027;-67
2023/09/03 10:16:56;;;;;;;2.53;1.60;;;22.20;89.50;;;;;;5036693;28;20450;-67
2023/09/03 10:19:27;;;;;;;1.52;1.23;;;22.30;86.80;;;;;;5033744;28;20033;-67
2023/09/03 10:21:55;;;;;;;1.67;1.58;;;22.30;86.30;;;;;;5034199;28;20054;-67
2023/09/03 10:24:25;;;;;;;2.85;1.90;;;22.30;85.70;;;;;;5033710;28;20044;-68
2023/09/03 10:26:56;;;;;;;2.65;1.63;;;22.30;86.30;;;;;;5034167;28;20032;-67
2023/09/03 10:29:23;;;;;;;2.35;1.48;;;22.40;85.80;;;;;;5033802;28;20051;-68
2023/09/03 10:31:51;;;;;;;1.85;1.65;;;22.50;85.30;;;;;;5033817;28;20028;-68
2023/09/03 10:34:17;;;;;;;1.83;1.30;;;22.60;85.00;;;;;;5033750;28;20033;-66
2023/09/03 10:37:05;;;;;;;1.45;1.30;;;22.60;84.40;;;;;;5033966;28;20022;-68
2023/09/03 10:39:31;;;;;;;2.50;1.30;;;22.60;83.00;;;;;;5033585;28;20033;-68
2023/09/03 10:42:18;;;;;;;2.45;1.52;;;22.80;84.30;;;;;;5033440;28;20072;-67
2023/09/03 10:44:56;;;;;;;2.42;1.50;;;22.90;83.70;;;;;;5033540;28;20029;-67
2023/09/03 10:47:22;;;;;;;2.08;1.50;;;23.00;83.20;;;;;;5033604;28;20025;-69
2023/09/03 10:49:50;;;;;;;2.60;1.85;;;23.10;82.40;;;;;;5033675;28;20026;-67
2023/09/03 10:52:31;;;;;;;2.08;1.63;;;23.30;81.90;;;;;;5034689;28;20090;-66
2023/09/03 10:55:19;;;;;;;2.00;1.80;;;23.40;81.40;;;;;;5043669;28;20094;-66
2023/09/03 10:58:16;;;;;;;4.88;2.00;;;23.50;80.20;;;;;;5043826;28;20540;-67
2023/09/03 11:01:19;;;;;;;3.55;2.50;;;23.60;80.50;;;;;;5043520;28;20124;-67
2023/09/03 11:03:46;;;;;;;2.20;1.88;;;23.70;79.60;;;;;;5043813;28;20064;-67
2023/09/03 11:06:27;;;;;;;2.90;1.77;;;23.70;77.50;;;;;;5042285;28;20045;-67
2023/09/03 11:09:06;;;;;;;1.60;1.50;;;23.70;76.10;;;;;;5042715;28;20024;-67
2023/09/03 11:11:36;;;;;;;2.20;2.00;;;23.80;76.60;;;;;;5042350;28;20033;-66
2023/09/03 11:14:04;;;;;;;2.60;1.75;;;23.80;78.00;;;;;;5042309;28;20025;-66
2023/09/03 11:16:31;;;;;;;5.65;1.95;;;23.90;78.80;;;;;;5026089;28;20036;-66
2023/09/03 11:18:58;;;;;;;2.13;1.92;;;23.80;74.80;;;;;;5043138;28;20032;-66
2023/09/03 11:21:28;;;;;;;2.55;1.80;;;23.80;76.10;;;;;;5039711;28;20028;-66
2023/09/03 11:24:20;;;;;;;2.55;1.85;;;23.90;76.90;;;;;;5041607;28;20533;-66
2023/09/03 11:27:04;;;;;;;4.45;1.80;;;24.00;77.10;;;;;;5040926;28;20028;-66
2023/09/03 11:29:31;;;;;;;2.10;1.90;;;23.90;76.20;;;;;;5025998;28;20029;-66
2023/09/03 11:31:59;;;;;;;2.00;1.83;;;23.90;75.60;;;;;;5025180;28;20138;-66
2023/09/03 11:34:29;;;;;;;4.18;1.70;;;23.80;75.00;;;;;;5039962;28;20031;-66
2023/09/03 11:36:57;;;;;;;2.05;1.77;;;24.00;75.30;;;;;;5032993;28;20026;-68
2023/09/03 11:39:24;;;;;;;2.50;1.60;;;24.00;73.80;;;;;;5032601;28;20025;-68
2023/09/03 11:41:50;;;;;;;2.65;1.88;;;24.10;76.00;;;;;;5037822;28;20033;-68
2023/09/03 11:44:20;;;;;;;3.80;1.95;;;24.10;75.70;;;;;;5025065;28;20031;-67
2023/09/03 11:47:01;;;;;;;3.38;2.05;;;24.10;76.30;;;;;;5040516;28;20028;-67
2023/09/03 11:49:27;;;;;;;2.83;1.90;;;24.30;75.30;;;;;;5039629;28;20465;-68
2023/09/03 11:52:07;;;;;;;1.92;1.75;;;24.20;75.50;;;;;;5040437;28;20056;-67
2023/09/03 11:54:33;;;;;;;2.40;1.40;;;24.20;72.40;;;;;;5032352;28;20458;-68
2023/09/03 11:57:01;;;;;;;2.17;1.67;;;24.30;72.50;;;;;;5038072;28;20034;-67
2023/09/03 11:59:27;;;;;;;1.88;1.52;;;24.40;73.00;;;;;;5042136;28;20049;-67
2023/09/03 12:01:54;;;;;;;1.90;1.60;;;24.50;73.10;;;;;;5042495;28;20057;-67
2023/09/03 12:04:21;;;;;;;2.28;1.85;;;24.50;71.10;;;;;;5040402;28;20051;-68
2023/09/03 12:06:48;;;;;;;1.70;1.60;;;24.50;71.30;;;;;;5042531;28;20017;-67
2023/09/03 12:09:19;;;;;;;2.53;1.83;;;24.40;72.00;;;;;;5031776;28;20501;-68
2023/09/03 12:11:46;;;;;;;2.08;1.73;;;24.50;72.90;;;;;;5032678;28;20030;-67
2023/09/03 12:14:26;;;;;;;1.63;1.52;;;24.50;70.90;;;;;;5032214;28;20033;-67
2023/09/03 12:16:53;;;;;;;2.50;1.95;;;24.50;69.50;;;;;;5032333;28;20061;-67
2023/09/03 12:19:19;;;;;;;1.90;1.58;;;24.50;70.60;;;;;;5031767;28;20075;-68
2023/09/03 12:21:50;;;;;;;2.63;2.10;;;24.50;71.30;;;;;;5032142;28;20026;-67
2023/09/03 12:24:25;;;;;;;2.28;1.73;;;24.60;71.40;;;;;;5034721;28;20427;-67
2023/09/03 12:27:03;;;;;;;1.80;1.70;;;24.50;71.60;;;;;;5032513;28;20529;-67
2023/09/03 12:29:35;;;;;;;2.95;2.00;;;24.30;73.70;;;;;;5031773;28;20029;-68
2023/09/03 12:32:02;;;;;;;2.35;1.58;;;24.40;73.20;;;;;;5032241;28;20033;-67
2023/09/03 12:34:36;;;;;;;2.58;1.88;;;24.50;73.00;;;;;;5031861;28;20225;-67
2023/09/03 12:37:04;;;;;;;5.20;1.60;;;24.70;73.10;;;;;;5014595;28;20037;-67
2023/09/03 12:39:35;;;;;;;2.70;1.70;;;24.70;72.60;;;;;;5031437;28;20037;-67
2023/09/03 12:42:04;;;;;;;2.78;1.75;;;24.60;70.10;;;;;;5031778;28;20033;-68
2023/09/03 12:44:30;;;;;;;3.97;2.10;;;24.50;71.50;;;;;;4997780;28;20034;-67
2023/09/03 12:46:58;;;;;;;2.28;1.65;;;24.50;71.90;;;;;;5031946;28;20083;-68
2023/09/03 12:49:28;;;;;;;1.85;1.50;;;24.70;72.20;;;;;;5031385;28;20243;-67
2023/09/03 12:51:56;;;;;;;2.13;1.60;;;24.70;69.50;;;;;;5031871;28;20481;-67